sensor_id;sensor_type;location;lat;lon;timestamp;pressure;altitude;pressure_sealevel;temperature
34125;BMP280;20110;53.120;5.786;2023-09-18T00:00:54;100849.28;;;24.08
34125;BMP280;20110;53.120;5.786;2023-09-18T00:03:22;100824.00;;;23.90
34125;BMP280;20110;53.120;5.786;2023-09-18T00:05:51;100824.78;;;23.92
34125;BMP280;20110;53.120;5.786;2023-09-18T00:08:18;100791.81;;;23.69
34125;BMP280;20110;53.120;5.786;2023-09-18T00:10:55;100798.53;;;23.81
34125;BMP280;20110;53.120;5.786;2023-09-18T00:13:22;100744.50;;;23.42
34125;BMP280;20110;53.120;5.786;2023-09-18T00:15:48;100792.22;;;23.77
34125;BMP280;20110;53.120;5.786;2023-09-18T00:18:15;100785.38;;;23.76
34125;BMP280;20110;53.120;5.786;2023-09-18T00:20:43;100774.34;;;23.72
34125;BMP280;20110;53.120;5.786;2023-09-18T00:23:09;100765.53;;;23.71
34125;BMP280;20110;53.120;5.786;2023-09-18T00:25:36;100711.78;;;23.38
34125;BMP280;20110;53.120;5.786;2023-09-18T00:28:03;100752.56;;;23.70
34125;BMP280;20110;53.120;5.786;2023-09-18T00:30:29;100703.97;;;23.44
34125;BMP280;20110;53.120;5.786;2023-09-18T00:32:55;100696.19;;;23.53
34125;BMP280;20110;53.120;5.786;2023-09-18T00:35:21;100718.72;;;23.71
34125;BMP280;20110;53.120;5.786;2023-09-18T00:37:48;100720.91;;;23.74
34125;BMP280;20110;53.120;5.786;2023-09-18T00:40:14;100716.09;;;23.73
34125;BMP280;20110;53.120;5.786;2023-09-18T00:42:40;100719.44;;;23.71
34125;BMP280;20110;53.120;5.786;2023-09-18T00:45:07;100711.81;;;23.68
34125;BMP280;20110;53.120;5.786;2023-09-18T00:47:34;100663.53;;;23.35
34125;BMP280;20110;53.120;5.786;2023-09-18T00:50:01;100694.28;;;23.55
34125;BMP280;20110;53.120;5.786;2023-09-18T00:52:28;100688.19;;;23.55
34125;BMP280;20110;53.120;5.786;2023-09-18T00:54:54;100684.50;;;23.48
34125;BMP280;20110;53.120;5.786;2023-09-18T00:57:21;100640.25;;;23.14
34125;BMP280;20110;53.120;5.786;2023-09-18T00:59:47;100651.88;;;23.17
34125;BMP280;20110;53.120;5.786;2023-09-18T01:02:13;100658.59;;;23.16
34125;BMP280;20110;53.120;5.786;2023-09-18T01:04:40;100666.00;;;23.15
34125;BMP280;20110;53.120;5.786;2023-09-18T01:07:10;100633.34;;;22.84
34125;BMP280;20110;53.120;5.786;2023-09-18T01:09:36;100656.53;;;23.00
34125;BMP280;20110;53.120;5.786;2023-09-18T01:12:18;100649.22;;;22.89
34125;BMP280;20110;53.120;5.786;2023-09-18T01:17:44;100654.72;;;22.91
34125;BMP280;20110;53.120;5.786;2023-09-18T01:20:11;100653.63;;;22.83
34125;BMP280;20110;53.120;5.786;2023-09-18T01:22:37;100640.28;;;22.73
34125;BMP280;20110;53.120;5.786;2023-09-18T01:25:03;100626.06;;;22.59
34125;BMP280;20110;53.120;5.786;2023-09-18T01:27:31;100640.81;;;22.70
34125;BMP280;20110;53.120;5.786;2023-09-18T01:29:57;100620.56;;;22.57
34125;BMP280;20110;53.120;5.786;2023-09-18T01:32:27;100632.91;;;22.60
34125;BMP280;20110;53.120;5.786;2023-09-18T01:34:56;100625.06;;;22.52
34125;BMP280;20110;53.120;5.786;2023-09-18T01:37:26;100619.75;;;22.54
34125;BMP280;20110;53.120;5.786;2023-09-18T01:39:53;100575.78;;;22.27
34125;BMP280;20110;53.120;5.786;2023-09-18T01:42:20;100581.91;;;22.41
34125;BMP280;20110;53.120;5.786;2023-09-18T01:44:47;100558.72;;;22.24
34125;BMP280;20110;53.120;5.786;2023-09-18T01:47:18;100570.25;;;22.38
34125;BMP280;20110;53.120;5.786;2023-09-18T01:49:44;100588.50;;;22.51
34125;BMP280;20110;53.120;5.786;2023-09-18T01:52:10;100569.66;;;22.40
34125;BMP280;20110;53.120;5.786;2023-09-18T01:54:36;100555.13;;;22.33
34125;BMP280;20110;53.120;5.786;2023-09-18T01:57:03;100567.16;;;22.44
34125;BMP280;20110;53.120;5.786;2023-09-18T01:59:30;100566.06;;;22.35
34125;BMP280;20110;53.120;5.786;2023-09-18T02:01:56;100552.25;;;22.29
34125;BMP280;20110;53.120;5.786;2023-09-18T02:04:23;100548.53;;;22.36
34125;BMP280;20110;53.120;5.786;2023-09-18T02:06:50;100547.13;;;22.35
34125;BMP280;20110;53.120;5.786;2023-09-18T02:09:17;100562.94;;;22.54
34125;BMP280;20110;53.120;5.786;2023-09-18T02:11:45;100569.13;;;22.71
34125;BMP280;20110;53.120;5.786;2023-09-18T02:14:11;100535.16;;;22.68
34125;BMP280;20110;53.120;5.786;2023-09-18T02:16:40;100531.81;;;22.83
34125;BMP280;20110;53.120;5.786;2023-09-18T02:19:13;100548.22;;;23.16
34125;BMP280;20110;53.120;5.786;2023-09-18T02:21:40;100501.16;;;22.94
34125;BMP280;20110;53.120;5.786;2023-09-18T02:24:07;100522.69;;;23.21
34125;BMP280;20110;53.120;5.786;2023-09-18T02:26:33;100536.38;;;23.39
34125;BMP280;20110;53.120;5.786;2023-09-18T02:29:02;100514.50;;;23.35
34125;BMP280;20110;53.120;5.786;2023-09-18T02:31:29;100527.56;;;23.54
34125;BMP280;20110;53.120;5.786;2023-09-18T02:33:55;100513.28;;;23.54
34125;BMP280;20110;53.120;5.786;2023-09-18T02:36:21;100531.66;;;23.71
34125;BMP280;20110;53.120;5.786;2023-09-18T02:38:47;100489.38;;;23.48
34125;BMP280;20110;53.120;5.786;2023-09-18T02:41:13;100515.19;;;23.82
34125;BMP280;20110;53.120;5.786;2023-09-18T02:43:39;100501.72;;;23.84
34125;BMP280;20110;53.120;5.786;2023-09-18T02:46:06;100477.16;;;23.80
34125;BMP280;20110;53.120;5.786;2023-09-18T02:48:32;100455.59;;;23.67
34125;BMP280;20110;53.120;5.786;2023-09-18T02:51:02;100504.34;;;23.98
34125;BMP280;20110;53.120;5.786;2023-09-18T02:53:28;100481.75;;;23.93
34125;BMP280;20110;53.120;5.786;2023-09-18T02:55:57;100479.47;;;24.04
34125;BMP280;20110;53.120;5.786;2023-09-18T02:58:23;100432.19;;;23.75
34125;BMP280;20110;53.120;5.786;2023-09-18T03:00:52;100480.94;;;24.07
34125;BMP280;20110;53.120;5.786;2023-09-18T03:03:23;100479.19;;;24.13
34125;BMP280;20110;53.120;5.786;2023-09-18T03:05:52;100424.94;;;23.80
34125;BMP280;20110;53.120;5.786;2023-09-18T03:08:18;100453.44;;;24.14
34125;BMP280;20110;53.120;5.786;2023-09-18T03:10:44;100404.66;;;23.81
34125;BMP280;20110;53.120;5.786;2023-09-18T03:13:14;100430.00;;;24.05
34125;BMP280;20110;53.120;5.786;2023-09-18T03:15:40;100412.81;;;23.99
34125;BMP280;20110;53.120;5.786;2023-09-18T03:18:06;100389.34;;;23.87
34125;BMP280;20110;53.120;5.786;2023-09-18T03:20:35;100417.03;;;24.19
34125;BMP280;20110;53.120;5.786;2023-09-18T03:23:02;100414.41;;;24.21
34125;BMP280;20110;53.120;5.786;2023-09-18T03:25:29;100397.53;;;24.25
34125;BMP280;20110;53.120;5.786;2023-09-18T03:27:56;100388.28;;;24.30
34125;BMP280;20110;53.120;5.786;2023-09-18T03:30:24;100376.78;;;24.31
34125;BMP280;20110;53.120;5.786;2023-09-18T03:32:51;100352.44;;;24.16
34125;BMP280;20110;53.120;5.786;2023-09-18T03:35:18;100377.25;;;24.44
34125;BMP280;20110;53.120;5.786;2023-09-18T03:37:49;100366.31;;;24.42
34125;BMP280;20110;53.120;5.786;2023-09-18T03:40:17;100328.72;;;24.34
34125;BMP280;20110;53.120;5.786;2023-09-18T03:42:44;100340.28;;;24.54
34125;BMP280;20110;53.120;5.786;2023-09-18T03:45:10;100328.81;;;24.56
34125;BMP280;20110;53.120;5.786;2023-09-18T03:47:38;100299.84;;;24.43
34125;BMP280;20110;53.120;5.786;2023-09-18T03:50:09;100324.16;;;24.58
34125;BMP280;20110;53.120;5.786;2023-09-18T03:52:38;100331.41;;;24.71
34125;BMP280;20110;53.120;5.786;2023-09-18T03:55:05;100311.06;;;24.72
34125;BMP280;20110;53.120;5.786;2023-09-18T03:57:31;100266.88;;;24.50
34125;BMP280;20110;53.120;5.786;2023-09-18T03:59:57;100297.00;;;24.78
34125;BMP280;20110;53.120;5.786;2023-09-18T04:02:25;100301.19;;;24.81
34125;BMP280;20110;53.120;5.786;2023-09-18T04:04:53;100289.63;;;24.80
34125;BMP280;20110;53.120;5.786;2023-09-18T04:07:19;100274.72;;;24.81
34125;BMP280;20110;53.120;5.786;2023-09-18T04:09:45;100243.72;;;24.67
34125;BMP280;20110;53.120;5.786;2023-09-18T04:12:12;100273.69;;;24.91
34125;BMP280;20110;53.120;5.786;2023-09-18T04:14:38;100262.53;;;24.83
34125;BMP280;20110;53.120;5.786;2023-09-18T04:17:04;100276.69;;;24.99
34125;BMP280;20110;53.120;5.786;2023-09-18T04:19:30;100266.97;;;24.94
34125;BMP280;20110;53.120;5.786;2023-09-18T04:21:56;100225.09;;;24.79
34125;BMP280;20110;53.120;5.786;2023-09-18T04:24:25;100262.84;;;25.12
34125;BMP280;20110;53.120;5.786;2023-09-18T04:26:51;100233.22;;;24.99
34125;BMP280;20110;53.120;5.786;2023-09-18T04:29:18;100260.31;;;25.18
34125;BMP280;20110;53.120;5.786;2023-09-18T04:31:45;100251.59;;;25.22
34125;BMP280;20110;53.120;5.786;2023-09-18T04:34:11;100247.59;;;25.25
34125;BMP280;20110;53.120;5.786;2023-09-18T04:36:37;100238.91;;;25.29
34125;BMP280;20110;53.120;5.786;2023-09-18T04:39:07;100236.84;;;25.27
34125;BMP280;20110;53.120;5.786;2023-09-18T04:41:34;100156.88;;;24.69
34125;BMP280;20110;53.120;5.786;2023-09-18T04:43:59;100233.47;;;25.29
34125;BMP280;20110;53.120;5.786;2023-09-18T04:46:25;100217.53;;;25.19
34125;BMP280;20110;53.120;5.786;2023-09-18T04:48:52;100191.31;;;25.06
34125;BMP280;20110;53.120;5.786;2023-09-18T04:51:18;100220.91;;;25.17
34125;BMP280;20110;53.120;5.786;2023-09-18T04:53:43;100193.84;;;25.00
34125;BMP280;20110;53.120;5.786;2023-09-18T04:56:09;100193.47;;;25.09
34125;BMP280;20110;53.120;5.786;2023-09-18T04:58:39;100213.81;;;25.30
34125;BMP280;20110;53.120;5.786;2023-09-18T05:01:05;100209.09;;;25.31
34125;BMP280;20110;53.120;5.786;2023-09-18T05:03:35;100188.94;;;25.16
34125;BMP280;20110;53.120;5.786;2023-09-18T05:06:02;100196.78;;;25.28
34125;BMP280;20110;53.120;5.786;2023-09-18T05:08:31;100163.59;;;25.09
34125;BMP280;20110;53.120;5.786;2023-09-18T05:10:57;100187.22;;;25.27
34125;BMP280;20110;53.120;5.786;2023-09-18T05:13:23;100197.59;;;25.34
34125;BMP280;20110;53.120;5.786;2023-09-18T05:15:49;100192.78;;;25.31
34125;BMP280;20110;53.120;5.786;2023-09-18T05:18:15;100198.50;;;25.41
34125;BMP280;20110;53.120;5.786;2023-09-18T05:20:41;100196.47;;;25.41
34125;BMP280;20110;53.120;5.786;2023-09-18T05:23:06;100191.13;;;25.43
34125;BMP280;20110;53.120;5.786;2023-09-18T05:25:34;100187.75;;;25.45
34125;BMP280;20110;53.120;5.786;2023-09-18T05:28:03;100188.59;;;25.49
34125;BMP280;20110;53.120;5.786;2023-09-18T05:30:34;100164.22;;;25.30
34125;BMP280;20110;53.120;5.786;2023-09-18T05:33:02;100189.97;;;25.50
34125;BMP280;20110;53.120;5.786;2023-09-18T05:35:36;100192.63;;;25.72
34125;BMP280;20110;53.120;5.786;2023-09-18T05:38:05;100197.06;;;25.85
34125;BMP280;20110;53.120;5.786;2023-09-18T05:40:31;100209.28;;;25.84
34125;BMP280;20110;53.120;5.786;2023-09-18T05:42:58;100214.47;;;26.00
34125;BMP280;20110;53.120;5.786;2023-09-18T05:45:25;100217.31;;;26.04
34125;BMP280;20110;53.120;5.786;2023-09-18T05:47:52;100209.09;;;26.02
34125;BMP280;20110;53.120;5.786;2023-09-18T05:50:31;100223.28;;;26.24
34125;BMP280;20110;53.120;5.786;2023-09-18T05:52:58;100200.00;;;26.17
34125;BMP280;20110;53.120;5.786;2023-09-18T05:55:33;100169.94;;;26.13
34125;BMP280;20110;53.120;5.786;2023-09-18T05:58:00;100192.38;;;26.39
34125;BMP280;20110;53.120;5.786;2023-09-18T06:00:26;100207.72;;;26.54
34125;BMP280;20110;53.120;5.786;2023-09-18T06:02:52;100207.41;;;26.42
34125;BMP280;20110;53.120;5.786;2023-09-18T06:05:18;100199.25;;;26.42
34125;BMP280;20110;53.120;5.786;2023-09-18T06:07:48;100235.22;;;26.64
34125;BMP280;20110;53.120;5.786;2023-09-18T06:10:14;100215.31;;;26.58
34125;BMP280;20110;53.120;5.786;2023-09-18T06:12:40;100184.91;;;26.40
34125;BMP280;20110;53.120;5.786;2023-09-18T06:15:08;100226.63;;;26.74
34125;BMP280;20110;53.120;5.786;2023-09-18T06:17:44;100152.47;;;26.22
34125;BMP280;20110;53.120;5.786;2023-09-18T06:20:11;100194.72;;;26.79
34125;BMP280;20110;53.120;5.786;2023-09-18T06:22:39;100122.59;;;26.24
34125;BMP280;20110;53.120;5.786;2023-09-18T06:25:07;100211.78;;;26.81
34125;BMP280;20110;53.120;5.786;2023-09-18T06:27:37;100166.69;;;26.18
34125;BMP280;20110;53.120;5.786;2023-09-18T06:30:07;100210.75;;;26.39
34125;BMP280;20110;53.120;5.786;2023-09-18T06:32:33;100203.31;;;26.13
34125;BMP280;20110;53.120;5.786;2023-09-18T06:35:00;100147.81;;;25.49
34125;BMP280;20110;53.120;5.786;2023-09-18T06:37:26;100197.59;;;25.80
34125;BMP280;20110;53.120;5.786;2023-09-18T06:39:52;100214.81;;;25.88
34125;BMP280;20110;53.120;5.786;2023-09-18T06:42:18;100188.78;;;25.57
34125;BMP280;20110;53.120;5.786;2023-09-18T06:44:45;100180.53;;;25.30
34125;BMP280;20110;53.120;5.786;2023-09-18T06:47:11;100202.19;;;25.49
34125;BMP280;20110;53.120;5.786;2023-09-18T06:49:37;100171.66;;;25.29
34125;BMP280;20110;53.120;5.786;2023-09-18T06:52:03;100191.50;;;25.34
34125;BMP280;20110;53.120;5.786;2023-09-18T06:54:30;100157.97;;;25.03
34125;BMP280;20110;53.120;5.786;2023-09-18T06:56:56;100142.13;;;24.96
34125;BMP280;20110;53.120;5.786;2023-09-18T06:59:22;100171.13;;;25.11
34125;BMP280;20110;53.120;5.786;2023-09-18T07:01:47;100170.78;;;25.22
34125;BMP280;20110;53.120;5.786;2023-09-18T07:04:13;100183.53;;;25.40
34125;BMP280;20110;53.120;5.786;2023-09-18T07:06:39;100167.72;;;25.34
34125;BMP280;20110;53.120;5.786;2023-09-18T07:09:06;100153.28;;;25.28
34125;BMP280;20110;53.120;5.786;2023-09-18T07:11:33;100166.66;;;25.43
34125;BMP280;20110;53.120;5.786;2023-09-18T07:13:59;100167.44;;;25.48
34125;BMP280;20110;53.120;5.786;2023-09-18T07:16:25;100168.56;;;25.39
34125;BMP280;20110;53.120;5.786;2023-09-18T07:18:51;100163.38;;;25.25
34125;BMP280;20110;53.120;5.786;2023-09-18T07:21:17;100139.03;;;25.05
34125;BMP280;20110;53.120;5.786;2023-09-18T07:23:43;100202.84;;;25.50
34125;BMP280;20110;53.120;5.786;2023-09-18T07:26:10;100202.97;;;25.54
34125;BMP280;20110;53.120;5.786;2023-09-18T07:28:36;100201.66;;;25.55
34125;BMP280;20110;53.120;5.786;2023-09-18T07:31:08;100176.25;;;25.46
34125;BMP280;20110;53.120;5.786;2023-09-18T07:33:35;100174.13;;;25.43
34125;BMP280;20110;53.120;5.786;2023-09-18T07:36:01;100171.59;;;25.49
34125;BMP280;20110;53.120;5.786;2023-09-18T07:38:27;100175.28;;;25.59
34125;BMP280;20110;53.120;5.786;2023-09-18T07:40:52;100163.97;;;25.45
34125;BMP280;20110;53.120;5.786;2023-09-18T07:43:18;100182.09;;;25.60
34125;BMP280;20110;53.120;5.786;2023-09-18T07:45:44;100166.75;;;25.47
34125;BMP280;20110;53.120;5.786;2023-09-18T07:48:10;100151.72;;;25.44
34125;BMP280;20110;53.120;5.786;2023-09-18T07:50:36;100156.56;;;25.48
34125;BMP280;20110;53.120;5.786;2023-09-18T07:53:02;100161.50;;;25.53
34125;BMP280;20110;53.120;5.786;2023-09-18T07:55:29;100185.16;;;25.73
34125;BMP280;20110;53.120;5.786;2023-09-18T07:57:56;100193.47;;;25.79
34125;BMP280;20110;53.120;5.786;2023-09-18T08:00:22;100149.28;;;25.54
34125;BMP280;20110;53.120;5.786;2023-09-18T08:02:49;100165.25;;;25.66
34125;BMP280;20110;53.120;5.786;2023-09-18T08:05:16;100177.25;;;25.81
34125;BMP280;20110;53.120;5.786;2023-09-18T08:07:42;100163.53;;;25.77
34125;BMP280;20110;53.120;5.786;2023-09-18T08:10:09;100149.53;;;25.62
34125;BMP280;20110;53.120;5.786;2023-09-18T08:12:35;100166.94;;;25.77
34125;BMP280;20110;53.120;5.786;2023-09-18T08:15:02;100173.47;;;25.92
34125;BMP280;20110;53.120;5.786;2023-09-18T08:17:28;100185.50;;;26.10
34125;BMP280;20110;53.120;5.786;2023-09-18T08:19:54;100190.91;;;26.08
34125;BMP280;20110;53.120;5.786;2023-09-18T08:22:21;100189.03;;;26.15
34125;BMP280;20110;53.120;5.786;2023-09-18T08:24:48;100211.88;;;26.30
34125;BMP280;20110;53.120;5.786;2023-09-18T08:27:15;100192.06;;;26.27
34125;BMP280;20110;53.120;5.786;2023-09-18T08:29:44;100199.91;;;26.41
34125;BMP280;20110;53.120;5.786;2023-09-18T08:32:10;100189.00;;;26.39
34125;BMP280;20110;53.120;5.786;2023-09-18T08:34:36;100151.22;;;26.25
34125;BMP280;20110;53.120;5.786;2023-09-18T08:37:03;100143.78;;;26.28
34125;BMP280;20110;53.120;5.786;2023-09-18T08:39:29;100190.22;;;26.61
34125;BMP280;20110;53.120;5.786;2023-09-18T08:42:03;100173.78;;;26.57
34125;BMP280;20110;53.120;5.786;2023-09-18T08:44:30;100177.00;;;26.78
34125;BMP280;20110;53.120;5.786;2023-09-18T08:46:57;100192.94;;;26.89
34125;BMP280;20110;53.120;5.786;2023-09-18T08:49:25;100204.53;;;26.90
34125;BMP280;20110;53.120;5.786;2023-09-18T08:51:54;100210.56;;;26.86
34125;BMP280;20110;53.120;5.786;2023-09-18T08:54:22;100195.88;;;26.99
34125;BMP280;20110;53.120;5.786;2023-09-18T08:56:53;100192.59;;;27.05
34125;BMP280;20110;53.120;5.786;2023-09-18T08:59:21;100199.28;;;27.30
34125;BMP280;20110;53.120;5.786;2023-09-18T09:01:50;100184.88;;;27.25
34125;BMP280;20110;53.120;5.786;2023-09-18T09:04:16;100177.34;;;27.24
34125;BMP280;20110;53.120;5.786;2023-09-18T09:06:42;100182.75;;;27.22
34125;BMP280;20110;53.120;5.786;2023-09-18T09:09:09;100208.47;;;27.44
34125;BMP280;20110;53.120;5.786;2023-09-18T09:11:39;100212.56;;;27.45
34125;BMP280;20110;53.120;5.786;2023-09-18T09:14:13;100191.84;;;27.32
34125;BMP280;20110;53.120;5.786;2023-09-18T09:16:51;100187.53;;;27.23
34125;BMP280;20110;53.120;5.786;2023-09-18T09:19:18;100194.28;;;27.52
34125;BMP280;20110;53.120;5.786;2023-09-18T09:21:45;100213.19;;;27.76
34125;BMP280;20110;53.120;5.786;2023-09-18T09:24:12;100210.19;;;27.97
34125;BMP280;20110;53.120;5.786;2023-09-18T09:26:41;100197.44;;;28.10
34125;BMP280;20110;53.120;5.786;2023-09-18T09:29:19;100214.28;;;28.36
34125;BMP280;20110;53.120;5.786;2023-09-18T09:31:46;100214.94;;;28.77
34125;BMP280;20110;53.120;5.786;2023-09-18T09:34:24;100188.94;;;28.72
34125;BMP280;20110;53.120;5.786;2023-09-18T09:36:56;100239.44;;;29.17
34125;BMP280;20110;53.120;5.786;2023-09-18T09:39:22;100157.72;;;28.89
34125;BMP280;20110;53.120;5.786;2023-09-18T09:41:53;100216.38;;;29.32
34125;BMP280;20110;53.120;5.786;2023-09-18T09:44:20;100204.34;;;28.99
34125;BMP280;20110;53.120;5.786;2023-09-18T09:46:50;100225.75;;;28.69
34125;BMP280;20110;53.120;5.786;2023-09-18T09:49:17;100235.03;;;28.95
34125;BMP280;20110;53.120;5.786;2023-09-18T09:51:46;100226.47;;;28.71
34125;BMP280;20110;53.120;5.786;2023-09-18T09:54:12;100211.31;;;28.22
34125;BMP280;20110;53.120;5.786;2023-09-18T09:56:49;100210.91;;;27.98
34125;BMP280;20110;53.120;5.786;2023-09-18T09:59:19;100250.41;;;28.33
34125;BMP280;20110;53.120;5.786;2023-09-18T10:01:47;100253.41;;;28.49
34125;BMP280;20110;53.120;5.786;2023-09-18T10:04:18;100266.06;;;28.70
34125;BMP280;20110;53.120;5.786;2023-09-18T10:06:50;100250.84;;;28.59
34125;BMP280;20110;53.120;5.786;2023-09-18T10:09:19;100215.94;;;28.53
34125;BMP280;20110;53.120;5.786;2023-09-18T10:11:49;100271.09;;;28.86
34125;BMP280;20110;53.120;5.786;2023-09-18T10:14:20;100248.56;;;28.85
34125;BMP280;20110;53.120;5.786;2023-09-18T10:16:53;100270.94;;;28.78
34125;BMP280;20110;53.120;5.786;2023-09-18T10:19:49;100279.13;;;28.76
34125;BMP280;20110;53.120;5.786;2023-09-18T10:22:42;100262.16;;;28.83
34125;BMP280;20110;53.120;5.786;2023-09-18T10:25:17;100258.41;;;29.05
34125;BMP280;20110;53.120;5.786;2023-09-18T10:27:48;100258.16;;;29.38
34125;BMP280;20110;53.120;5.786;2023-09-18T10:30:20;100206.22;;;29.38
34125;BMP280;20110;53.120;5.786;2023-09-18T10:32:51;100275.25;;;29.37
34125;BMP280;20110;53.120;5.786;2023-09-18T10:35:18;100256.28;;;29.01
34125;BMP280;20110;53.120;5.786;2023-09-18T10:37:48;100208.88;;;28.82
34125;BMP280;20110;53.120;5.786;2023-09-18T10:40:15;100268.19;;;29.20
34125;BMP280;20110;53.120;5.786;2023-09-18T10:42:42;100258.03;;;29.28
34125;BMP280;20110;53.120;5.786;2023-09-18T10:45:11;100258.44;;;29.07
34125;BMP280;20110;53.120;5.786;2023-09-18T10:47:43;100265.69;;;28.90
34125;BMP280;20110;53.120;5.786;2023-09-18T10:50:29;100259.16;;;28.65
34125;BMP280;20110;53.120;5.786;2023-09-18T10:52:57;100258.81;;;28.87
34125;BMP280;20110;53.120;5.786;2023-09-18T10:55:25;100267.09;;;29.41
34125;BMP280;20110;53.120;5.786;2023-09-18T10:58:00;100269.53;;;30.37
34125;BMP280;20110;53.120;5.786;2023-09-18T11:00:31;100258.41;;;31.17
34125;BMP280;20110;53.120;5.786;2023-09-18T11:03:29;100233.25;;;31.91
34125;BMP280;20110;53.120;5.786;2023-09-18T11:06:07;100233.97;;;31.88
34125;BMP280;20110;53.120;5.786;2023-09-18T11:08:46;100255.97;;;32.10
34125;BMP280;20110;53.120;5.786;2023-09-18T11:11:13;100236.03;;;32.01
34125;BMP280;20110;53.120;5.786;2023-09-18T11:13:48;100255.53;;;30.89
34125;BMP280;20110;53.120;5.786;2023-09-18T11:19:09;100259.75;;;30.14
34125;BMP280;20110;53.120;5.786;2023-09-18T11:21:36;100274.50;;;30.59
34125;BMP280;20110;53.120;5.786;2023-09-18T11:24:17;100221.47;;;31.30
34125;BMP280;20110;53.120;5.786;2023-09-18T11:26:47;100227.06;;;31.91
34125;BMP280;20110;53.120;5.786;2023-09-18T11:29:17;100258.03;;;32.36
34125;BMP280;20110;53.120;5.786;2023-09-18T11:31:53;100281.97;;;31.73
34125;BMP280;20110;53.120;5.786;2023-09-18T11:37:22;100254.38;;;31.32
34125;BMP280;20110;53.120;5.786;2023-09-18T11:39:50;100256.75;;;30.70
34125;BMP280;20110;53.120;5.786;2023-09-18T11:42:21;100262.53;;;30.22
34125;BMP280;20110;53.120;5.786;2023-09-18T11:44:53;100270.47;;;29.93
34125;BMP280;20110;53.120;5.786;2023-09-18T11:47:23;100280.63;;;29.85
34125;BMP280;20110;53.120;5.786;2023-09-18T11:49:57;100259.41;;;30.58
34125;BMP280;20110;53.120;5.786;2023-09-18T11:52:27;100244.13;;;31.37
34125;BMP280;20110;53.120;5.786;2023-09-18T11:54:57;100222.59;;;30.85
34125;BMP280;20110;53.120;5.786;2023-09-18T11:57:24;100238.19;;;30.62
34125;BMP280;20110;53.120;5.786;2023-09-18T11:59:50;100238.31;;;29.92
34125;BMP280;20110;53.120;5.786;2023-09-18T12:02:38;100260.75;;;30.53
34125;BMP280;20110;53.120;5.786;2023-09-18T12:05:14;100268.47;;;30.76
34125;BMP280;20110;53.120;5.786;2023-09-18T12:07:43;100238.88;;;30.63
34125;BMP280;20110;53.120;5.786;2023-09-18T12:10:12;100271.75;;;30.59
34125;BMP280;20110;53.120;5.786;2023-09-18T12:12:38;100224.66;;;30.84
34125;BMP280;20110;53.120;5.786;2023-09-18T12:15:05;100244.50;;;30.79
34125;BMP280;20110;53.120;5.786;2023-09-18T12:17:32;100212.53;;;31.24
34125;BMP280;20110;53.120;5.786;2023-09-18T12:19:57;100248.94;;;31.48
34125;BMP280;20110;53.120;5.786;2023-09-18T12:22:28;100208.47;;;31.43
34125;BMP280;20110;53.120;5.786;2023-09-18T12:25:14;100241.34;;;31.33
34125;BMP280;20110;53.120;5.786;2023-09-18T12:27:41;100246.22;;;31.61
34125;BMP280;20110;53.120;5.786;2023-09-18T12:30:08;100242.75;;;31.32
34125;BMP280;20110;53.120;5.786;2023-09-18T12:32:39;100213.09;;;30.98
34125;BMP280;20110;53.120;5.786;2023-09-18T12:35:08;100242.84;;;30.39
34125;BMP280;20110;53.120;5.786;2023-09-18T12:37:39;100273.03;;;30.45
34125;BMP280;20110;53.120;5.786;2023-09-18T12:40:20;100263.84;;;30.17
34125;BMP280;20110;53.120;5.786;2023-09-18T12:42:47;100294.06;;;30.25
34125;BMP280;20110;53.120;5.786;2023-09-18T12:45:13;100253.09;;;30.37
34125;BMP280;20110;53.120;5.786;2023-09-18T12:47:39;100254.84;;;30.06
34125;BMP280;20110;53.120;5.786;2023-09-18T12:50:06;100264.25;;;29.89
34125;BMP280;20110;53.120;5.786;2023-09-18T12:52:32;100285.56;;;30.00
34125;BMP280;20110;53.120;5.786;2023-09-18T12:54:59;100246.63;;;30.02
34125;BMP280;20110;53.120;5.786;2023-09-18T12:57:29;100235.84;;;29.58
34125;BMP280;20110;53.120;5.786;2023-09-18T12:59:55;100227.50;;;30.10
34125;BMP280;20110;53.120;5.786;2023-09-18T13:02:21;100244.75;;;30.25
34125;BMP280;20110;53.120;5.786;2023-09-18T13:04:56;100248.59;;;29.97
34125;BMP280;20110;53.120;5.786;2023-09-18T13:07:25;100207.63;;;30.08
34125;BMP280;20110;53.120;5.786;2023-09-18T13:10:06;100217.13;;;30.00
34125;BMP280;20110;53.120;5.786;2023-09-18T13:12:49;100240.41;;;29.97
34125;BMP280;20110;53.120;5.786;2023-09-18T13:15:29;100217.56;;;29.77
34125;BMP280;20110;53.120;5.786;2023-09-18T13:17:58;100186.81;;;29.78
34125;BMP280;20110;53.120;5.786;2023-09-18T13:20:26;100225.50;;;30.17
34125;BMP280;20110;53.120;5.786;2023-09-18T13:22:56;100221.38;;;29.47
34125;BMP280;20110;53.120;5.786;2023-09-18T13:25:27;100256.84;;;29.41
34125;BMP280;20110;53.120;5.786;2023-09-18T13:27:54;100256.03;;;29.31
34125;BMP280;20110;53.120;5.786;2023-09-18T13:30:21;100215.09;;;28.87
34125;BMP280;20110;53.120;5.786;2023-09-18T13:32:50;100271.59;;;29.18
34125;BMP280;20110;53.120;5.786;2023-09-18T13:35:17;100252.00;;;28.88
34125;BMP280;20110;53.120;5.786;2023-09-18T13:37:44;100248.56;;;28.45
34125;BMP280;20110;53.120;5.786;2023-09-18T13:40:11;100287.78;;;28.24
34125;BMP280;20110;53.120;5.786;2023-09-18T13:42:38;100265.34;;;26.98
34125;BMP280;20110;53.120;5.786;2023-09-18T13:45:06;100265.75;;;25.62
34125;BMP280;20110;53.120;5.786;2023-09-18T13:47:35;100276.03;;;25.00
34125;BMP280;20110;53.120;5.786;2023-09-18T13:50:03;100268.34;;;24.73
34125;BMP280;20110;53.120;5.786;2023-09-18T13:52:32;100260.25;;;24.75
34125;BMP280;20110;53.120;5.786;2023-09-18T13:54:58;100252.94;;;24.60
34125;BMP280;20110;53.120;5.786;2023-09-18T13:57:24;100226.78;;;24.49
34125;BMP280;20110;53.120;5.786;2023-09-18T13:59:51;100247.94;;;24.72
34125;BMP280;20110;53.120;5.786;2023-09-18T14:02:18;100244.72;;;24.77
34125;BMP280;20110;53.120;5.786;2023-09-18T14:04:45;100250.91;;;24.80
34125;BMP280;20110;53.120;5.786;2023-09-18T14:07:11;100238.19;;;24.85
34125;BMP280;20110;53.120;5.786;2023-09-18T14:09:38;100196.56;;;24.58
34125;BMP280;20110;53.120;5.786;2023-09-18T14:12:05;100212.13;;;24.77